sensor_id;sensor_type;location;lat;lon;timestamp;P1;durP1;ratioP1;P2;durP2;ratioP2
10641;SDS011;5369;49.586;8.646;2023-05-10T00:01:14;1.57;;;1.47;;
10641;SDS011;5369;49.586;8.646;2023-05-10T00:03:40;2.27;;;1.67;;
10641;SDS011;5369;49.586;8.646;2023-05-10T00:06:06;2.77;;;1.50;;
10641;SDS011;5369;49.586;8.646;2023-05-10T00:08:32;1.80;;;1.60;;
10641;SDS011;5369;49.586;8.646;2023-05-10T00:10:57;1.77;;;1.67;;
10641;SDS011;5369;49.586;8.646;2023-05-10T00:13:23;1.97;;;1.70;;
10641;SDS011;5369;49.586;8.646;2023-05-10T00:15:49;1.77;;;1.50;;
10641;SDS011;5369;49.586;8.646;2023-05-10T00:18:15;1.67;;;1.50;;
10641;SDS011;5369;49.586;8.646;2023-05-10T00:20:41;1.83;;;1.50;;
10641;SDS011;5369;49.586;8.646;2023-05-10T00:23:07;1.50;;;1.40;;
10641;SDS011;5369;49.586;8.646;2023-05-10T00:25:33;2.83;;;1.47;;
10641;SDS011;5369;49.586;8.646;2023-05-10T00:27:58;1.43;;;1.33;;
10641;SDS011;5369;49.586;8.646;2023-05-10T00:30:26;1.40;;;1.30;;
10641;SDS011;5369;49.586;8.646;2023-05-10T00:32:52;2.17;;;1.40;;
10641;SDS011;5369;49.586;8.646;2023-05-10T00:35:17;1.50;;;1.30;;
10641;SDS011;5369;49.586;8.646;2023-05-10T00:37:43;1.70;;;1.60;;
10641;SDS011;5369;49.586;8.646;2023-05-10T00:40:09;1.67;;;1.57;;
10641;SDS011;5369;49.586;8.646;2023-05-10T00:42:35;1.50;;;1.27;;
10641;SDS011;5369;49.586;8.646;2023-05-10T00:45:01;1.60;;;1.40;;
10641;SDS011;5369;49.586;8.646;2023-05-10T00:47:27;1.93;;;1.50;;
10641;SDS011;5369;49.586;8.646;2023-05-10T00:49:55;2.40;;;1.60;;
10641;SDS011;5369;49.586;8.646;2023-05-10T00:52:21;1.40;;;1.30;;
10641;SDS011;5369;49.586;8.646;2023-05-10T00:54:49;1.60;;;1.50;;
10641;SDS011;5369;49.586;8.646;2023-05-10T00:57:17;1.60;;;1.50;;
10641;SDS011;5369;49.586;8.646;2023-05-10T00:59:43;2.17;;;1.57;;
10641;SDS011;5369;49.586;8.646;2023-05-10T01:02:09;1.60;;;1.50;;
10641;SDS011;5369;49.586;8.646;2023-05-10T01:04:35;1.87;;;1.50;;
10641;SDS011;5369;49.586;8.646;2023-05-10T01:07:02;1.70;;;1.60;;
10641;SDS011;5369;49.586;8.646;2023-05-10T01:09:28;1.53;;;1.40;;
10641;SDS011;5369;49.586;8.646;2023-05-10T01:11:54;2.03;;;1.60;;
10641;SDS011;5369;49.586;8.646;2023-05-10T01:14:21;2.70;;;1.90;;
10641;SDS011;5369;49.586;8.646;2023-05-10T01:16:48;3.77;;;1.80;;
10641;SDS011;5369;49.586;8.646;2023-05-10T01:19:27;2.17;;;1.97;;
10641;SDS011;5369;49.586;8.646;2023-05-10T01:24:36;2.03;;;1.93;;
10641;SDS011;5369;49.586;8.646;2023-05-10T01:33:11;2.30;;;2.00;;
10641;SDS011;5369;49.586;8.646;2023-05-10T01:36:08;3.30;;;2.10;;
10641;SDS011;5369;49.586;8.646;2023-05-10T01:38:49;2.27;;;2.07;;
10641;SDS011;5369;49.586;8.646;2023-05-10T01:41:18;3.33;;;2.00;;
10641;SDS011;5369;49.586;8.646;2023-05-10T01:43:55;2.83;;;1.80;;
10641;SDS011;5369;49.586;8.646;2023-05-10T01:46:30;3.17;;;1.80;;
10641;SDS011;5369;49.586;8.646;2023-05-10T01:49:01;1.80;;;1.70;;
10641;SDS011;5369;49.586;8.646;2023-05-10T01:51:36;1.90;;;1.80;;
10641;SDS011;5369;49.586;8.646;2023-05-10T01:54:06;3.33;;;2.10;;
10641;SDS011;5369;49.586;8.646;2023-05-10T01:56:34;2.33;;;2.10;;
10641;SDS011;5369;49.586;8.646;2023-05-10T01:59:04;3.33;;;2.03;;
10641;SDS011;5369;49.586;8.646;2023-05-10T02:01:33;1.80;;;1.70;;
10641;SDS011;5369;49.586;8.646;2023-05-10T02:04:00;2.27;;;2.03;;
10641;SDS011;5369;49.586;8.646;2023-05-10T02:06:28;2.47;;;1.93;;
10641;SDS011;5369;49.586;8.646;2023-05-10T02:08:53;5.43;;;2.27;;
10641;SDS011;5369;49.586;8.646;2023-05-10T02:11:20;2.67;;;2.40;;
10641;SDS011;5369;49.586;8.646;2023-05-10T02:13:49;2.50;;;2.30;;
10641;SDS011;5369;49.586;8.646;2023-05-10T02:16:16;4.40;;;2.47;;
10641;SDS011;5369;49.586;8.646;2023-05-10T02:18:47;2.73;;;2.50;;
10641;SDS011;5369;49.586;8.646;2023-05-10T02:21:14;4.10;;;2.83;;
10641;SDS011;5369;49.586;8.646;2023-05-10T02:23:42;2.40;;;2.20;;
10641;SDS011;5369;49.586;8.646;2023-05-10T02:26:10;3.10;;;2.33;;
10641;SDS011;5369;49.586;8.646;2023-05-10T02:28:38;3.70;;;2.30;;
10641;SDS011;5369;49.586;8.646;2023-05-10T02:31:05;3.90;;;2.50;;
10641;SDS011;5369;49.586;8.646;2023-05-10T02:33:32;5.13;;;2.40;;
10641;SDS011;5369;49.586;8.646;2023-05-10T02:35:59;2.20;;;2.00;;
10641;SDS011;5369;49.586;8.646;2023-05-10T02:38:26;2.37;;;2.17;;
10641;SDS011;5369;49.586;8.646;2023-05-10T02:40:52;2.43;;;2.13;;
10641;SDS011;5369;49.586;8.646;2023-05-10T02:43:21;2.30;;;1.97;;
10641;SDS011;5369;49.586;8.646;2023-05-10T02:45:48;2.13;;;1.90;;
10641;SDS011;5369;49.586;8.646;2023-05-10T02:48:15;2.27;;;2.07;;
10641;SDS011;5369;49.586;8.646;2023-05-10T02:50:43;2.17;;;2.00;;
10641;SDS011;5369;49.586;8.646;2023-05-10T02:53:10;1.83;;;1.60;;
10641;SDS011;5369;49.586;8.646;2023-05-10T02:55:40;2.10;;;1.90;;
10641;SDS011;5369;49.586;8.646;2023-05-10T02:58:10;1.53;;;1.43;;
10641;SDS011;5369;49.586;8.646;2023-05-10T03:00:36;1.90;;;1.80;;
10641;SDS011;5369;49.586;8.646;2023-05-10T03:03:02;3.47;;;1.57;;
10641;SDS011;5369;49.586;8.646;2023-05-10T03:05:27;1.70;;;1.60;;
10641;SDS011;5369;49.586;8.646;2023-05-10T03:07:54;1.73;;;1.63;;
10641;SDS011;5369;49.586;8.646;2023-05-10T03:10:22;1.77;;;1.67;;
10641;SDS011;5369;49.586;8.646;2023-05-10T03:16:06;1.97;;;1.80;;
10641;SDS011;5369;49.586;8.646;2023-05-10T03:21:04;2.93;;;1.80;;
10641;SDS011;5369;49.586;8.646;2023-05-10T03:23:40;1.90;;;1.80;;
10641;SDS011;5369;49.586;8.646;2023-05-10T03:26:07;2.13;;;1.70;;
10641;SDS011;5369;49.586;8.646;2023-05-10T03:28:34;2.00;;;1.80;;
10641;SDS011;5369;49.586;8.646;2023-05-10T03:31:02;2.83;;;2.00;;
10641;SDS011;5369;49.586;8.646;2023-05-10T03:33:32;1.87;;;1.70;;
10641;SDS011;5369;49.586;8.646;2023-05-10T03:35:58;2.00;;;1.90;;
10641;SDS011;5369;49.586;8.646;2023-05-10T03:38:25;2.00;;;1.83;;
10641;SDS011;5369;49.586;8.646;2023-05-10T03:40:50;2.10;;;1.80;;
10641;SDS011;5369;49.586;8.646;2023-05-10T03:43:16;3.10;;;2.00;;
10641;SDS011;5369;49.586;8.646;2023-05-10T03:45:42;2.50;;;2.10;;
10641;SDS011;5369;49.586;8.646;2023-05-10T03:48:07;2.67;;;2.47;;
10641;SDS011;5369;49.586;8.646;2023-05-10T03:50:33;2.53;;;2.33;;
10641;SDS011;5369;49.586;8.646;2023-05-10T03:52:59;4.00;;;2.50;;
10641;SDS011;5369;49.586;8.646;2023-05-10T03:55:26;3.80;;;3.00;;
10641;SDS011;5369;49.586;8.646;2023-05-10T03:57:52;2.60;;;2.40;;
10641;SDS011;5369;49.586;8.646;2023-05-10T04:00:20;2.70;;;2.50;;
10641;SDS011;5369;49.586;8.646;2023-05-10T04:02:50;4.90;;;2.67;;
10641;SDS011;5369;49.586;8.646;2023-05-10T04:05:18;2.93;;;2.47;;
10641;SDS011;5369;49.586;8.646;2023-05-10T04:07:44;3.73;;;2.57;;
10641;SDS011;5369;49.586;8.646;2023-05-10T04:10:10;3.67;;;2.63;;
10641;SDS011;5369;49.586;8.646;2023-05-10T04:12:36;5.23;;;3.27;;
10641;SDS011;5369;49.586;8.646;2023-05-10T04:15:02;4.17;;;3.00;;
10641;SDS011;5369;49.586;8.646;2023-05-10T04:17:28;2.93;;;2.73;;
10641;SDS011;5369;49.586;8.646;2023-05-10T04:19:54;2.90;;;2.70;;
10641;SDS011;5369;49.586;8.646;2023-05-10T04:22:21;3.10;;;2.90;;
10641;SDS011;5369;49.586;8.646;2023-05-10T04:24:46;3.23;;;2.93;;
10641;SDS011;5369;49.586;8.646;2023-05-10T04:27:12;3.47;;;2.70;;
10641;SDS011;5369;49.586;8.646;2023-05-10T04:29:38;3.83;;;2.50;;
10641;SDS011;5369;49.586;8.646;2023-05-10T04:32:03;2.73;;;2.37;;
10641;SDS011;5369;49.586;8.646;2023-05-10T04:34:29;2.77;;;2.50;;
10641;SDS011;5369;49.586;8.646;2023-05-10T04:36:55;3.00;;;2.70;;
10641;SDS011;5369;49.586;8.646;2023-05-10T04:39:21;3.93;;;2.60;;
10641;SDS011;5369;49.586;8.646;2023-05-10T04:41:46;3.50;;;2.20;;
10641;SDS011;5369;49.586;8.646;2023-05-10T04:44:12;2.50;;;2.30;;
10641;SDS011;5369;49.586;8.646;2023-05-10T04:46:38;2.63;;;2.30;;
10641;SDS011;5369;49.586;8.646;2023-05-10T04:49:04;2.47;;;2.27;;
10641;SDS011;5369;49.586;8.646;2023-05-10T04:51:29;3.80;;;2.40;;
10641;SDS011;5369;49.586;8.646;2023-05-10T04:53:56;5.40;;;2.70;;
10641;SDS011;5369;49.586;8.646;2023-05-10T04:56:22;4.10;;;2.10;;
10641;SDS011;5369;49.586;8.646;2023-05-10T04:58:47;2.37;;;2.20;;
10641;SDS011;5369;49.586;8.646;2023-05-10T05:01:13;2.37;;;2.17;;
10641;SDS011;5369;49.586;8.646;2023-05-10T05:03:39;2.70;;;2.20;;
10641;SDS011;5369;49.586;8.646;2023-05-10T05:06:04;2.50;;;2.30;;
10641;SDS011;5369;49.586;8.646;2023-05-10T05:08:30;2.40;;;2.20;;
10641;SDS011;5369;49.586;8.646;2023-05-10T05:10:56;2.43;;;2.20;;
10641;SDS011;5369;49.586;8.646;2023-05-10T05:13:22;3.87;;;2.40;;
10641;SDS011;5369;49.586;8.646;2023-05-10T05:15:47;2.97;;;2.50;;
10641;SDS011;5369;49.586;8.646;2023-05-10T05:18:13;2.70;;;2.50;;
10641;SDS011;5369;49.586;8.646;2023-05-10T05:20:39;3.23;;;2.57;;
10641;SDS011;5369;49.586;8.646;2023-05-10T05:23:04;3.60;;;2.80;;
10641;SDS011;5369;49.586;8.646;2023-05-10T05:25:30;2.90;;;2.57;;
10641;SDS011;5369;49.586;8.646;2023-05-10T05:27:56;2.43;;;2.23;;
10641;SDS011;5369;49.586;8.646;2023-05-10T05:30:22;2.70;;;2.50;;
10641;SDS011;5369;49.586;8.646;2023-05-10T05:32:47;3.50;;;2.43;;
10641;SDS011;5369;49.586;8.646;2023-05-10T05:35:13;3.70;;;2.50;;
10641;SDS011;5369;49.586;8.646;2023-05-10T05:37:39;4.00;;;2.70;;
10641;SDS011;5369;49.586;8.646;2023-05-10T05:40:05;2.93;;;2.70;;
10641;SDS011;5369;49.586;8.646;2023-05-10T05:42:31;3.10;;;2.70;;
10641;SDS011;5369;49.586;8.646;2023-05-10T05:44:57;3.70;;;2.97;;
10641;SDS011;5369;49.586;8.646;2023-05-10T05:47:23;3.30;;;2.77;;
10641;SDS011;5369;49.586;8.646;2023-05-10T05:49:49;3.10;;;2.63;;
10641;SDS011;5369;49.586;8.646;2023-05-10T05:52:14;3.20;;;2.90;;
10641;SDS011;5369;49.586;8.646;2023-05-10T05:54:40;3.53;;;2.73;;
10641;SDS011;5369;49.586;8.646;2023-05-10T05:57:06;2.77;;;2.57;;
10641;SDS011;5369;49.586;8.646;2023-05-10T05:59:32;3.30;;;2.90;;
10641;SDS011;5369;49.586;8.646;2023-05-10T06:01:58;3.50;;;3.20;;
10641;SDS011;5369;49.586;8.646;2023-05-10T06:04:23;3.60;;;3.30;;
10641;SDS011;5369;49.586;8.646;2023-05-10T06:06:49;3.40;;;3.10;;
10641;SDS011;5369;49.586;8.646;2023-05-10T06:09:15;3.33;;;3.03;;
10641;SDS011;5369;49.586;8.646;2023-05-10T06:11:41;4.50;;;3.40;;
10641;SDS011;5369;49.586;8.646;2023-05-10T06:14:07;6.30;;;3.50;;
10641;SDS011;5369;49.586;8.646;2023-05-10T06:16:33;4.23;;;3.73;;
10641;SDS011;5369;49.586;8.646;2023-05-10T06:18:59;3.97;;;3.57;;
10641;SDS011;5369;49.586;8.646;2023-05-10T06:21:25;4.10;;;3.63;;
10641;SDS011;5369;49.586;8.646;2023-05-10T06:23:51;4.10;;;3.70;;
10641;SDS011;5369;49.586;8.646;2023-05-10T06:26:16;3.90;;;3.60;;
10641;SDS011;5369;49.586;8.646;2023-05-10T06:28:42;3.60;;;3.30;;
10641;SDS011;5369;49.586;8.646;2023-05-10T06:31:08;5.30;;;4.37;;
10641;SDS011;5369;49.586;8.646;2023-05-10T06:33:34;4.43;;;4.13;;
10641;SDS011;5369;49.586;8.646;2023-05-10T06:36:00;4.13;;;3.77;;
10641;SDS011;5369;49.586;8.646;2023-05-10T06:38:26;5.87;;;3.73;;
10641;SDS011;5369;49.586;8.646;2023-05-10T06:40:51;4.27;;;3.87;;
10641;SDS011;5369;49.586;8.646;2023-05-10T06:43:17;4.30;;;3.90;;
10641;SDS011;5369;49.586;8.646;2023-05-10T06:45:43;3.83;;;3.40;;
10641;SDS011;5369;49.586;8.646;2023-05-10T06:48:09;3.87;;;3.47;;
10641;SDS011;5369;49.586;8.646;2023-05-10T06:50:34;4.03;;;3.47;;
10641;SDS011;5369;49.586;8.646;2023-05-10T06:53:00;5.50;;;3.93;;
10641;SDS011;5369;49.586;8.646;2023-05-10T06:55:29;4.07;;;3.53;;
10641;SDS011;5369;49.586;8.646;2023-05-10T06:57:54;4.20;;;3.80;;
10641;SDS011;5369;49.586;8.646;2023-05-10T07:00:20;5.20;;;4.33;;
10641;SDS011;5369;49.586;8.646;2023-05-10T07:02:46;4.87;;;4.47;;
10641;SDS011;5369;49.586;8.646;2023-05-10T07:05:12;6.30;;;3.60;;
10641;SDS011;5369;49.586;8.646;2023-05-10T07:07:38;4.57;;;3.90;;
10641;SDS011;5369;49.586;8.646;2023-05-10T07:10:04;4.70;;;3.77;;
10641;SDS011;5369;49.586;8.646;2023-05-10T07:12:31;7.40;;;4.13;;
10641;SDS011;5369;49.586;8.646;2023-05-10T07:14:56;4.50;;;4.10;;
10641;SDS011;5369;49.586;8.646;2023-05-10T07:17:22;4.80;;;4.30;;
10641;SDS011;5369;49.586;8.646;2023-05-10T07:19:48;4.70;;;4.30;;
10641;SDS011;5369;49.586;8.646;2023-05-10T07:22:14;5.47;;;4.67;;
10641;SDS011;5369;49.586;8.646;2023-05-10T07:24:41;6.37;;;4.60;;
10641;SDS011;5369;49.586;8.646;2023-05-10T07:27:07;8.10;;;4.57;;
10641;SDS011;5369;49.586;8.646;2023-05-10T07:29:34;5.50;;;4.90;;
10641;SDS011;5369;49.586;8.646;2023-05-10T07:32:00;5.17;;;4.77;;
10641;SDS011;5369;49.586;8.646;2023-05-10T07:34:26;5.13;;;4.73;;
10641;SDS011;5369;49.586;8.646;2023-05-10T07:36:52;5.90;;;4.27;;
10641;SDS011;5369;49.586;8.646;2023-05-10T07:39:18;4.60;;;4.20;;
10641;SDS011;5369;49.586;8.646;2023-05-10T07:41:45;4.53;;;4.13;;
10641;SDS011;5369;49.586;8.646;2023-05-10T07:44:11;4.77;;;4.37;;
10641;SDS011;5369;49.586;8.646;2023-05-10T07:46:37;4.70;;;4.27;;
10641;SDS011;5369;49.586;8.646;2023-05-10T07:49:03;4.57;;;4.00;;
10641;SDS011;5369;49.586;8.646;2023-05-10T07:51:29;4.30;;;4.00;;
10641;SDS011;5369;49.586;8.646;2023-05-10T07:53:54;4.10;;;3.80;;
10641;SDS011;5369;49.586;8.646;2023-05-10T07:56:25;4.47;;;4.07;;
10641;SDS011;5369;49.586;8.646;2023-05-10T07:58:55;3.80;;;3.50;;
10641;SDS011;5369;49.586;8.646;2023-05-10T08:01:22;3.83;;;3.43;;
10641;SDS011;5369;49.586;8.646;2023-05-10T08:03:48;4.53;;;3.77;;
10641;SDS011;5369;49.586;8.646;2023-05-10T08:06:16;5.00;;;3.80;;
10641;SDS011;5369;49.586;8.646;2023-05-10T08:08:42;3.93;;;3.50;;
10641;SDS011;5369;49.586;8.646;2023-05-10T08:11:08;3.93;;;3.63;;
10641;SDS011;5369;49.586;8.646;2023-05-10T08:13:34;5.33;;;3.60;;
10641;SDS011;5369;49.586;8.646;2023-05-10T08:16:00;4.73;;;3.50;;
10641;SDS011;5369;49.586;8.646;2023-05-10T08:18:25;3.40;;;3.10;;
10641;SDS011;5369;49.586;8.646;2023-05-10T08:20:51;6.47;;;3.57;;
10641;SDS011;5369;49.586;8.646;2023-05-10T08:23:17;3.70;;;3.10;;
10641;SDS011;5369;49.586;8.646;2023-05-10T08:25:42;3.80;;;3.00;;
10641;SDS011;5369;49.586;8.646;2023-05-10T08:28:08;2.93;;;2.70;;
10641;SDS011;5369;49.586;8.646;2023-05-10T08:30:34;4.60;;;2.80;;
10641;SDS011;5369;49.586;8.646;2023-05-10T08:33:00;3.13;;;2.93;;
10641;SDS011;5369;49.586;8.646;2023-05-10T08:35:25;2.90;;;2.47;;
10641;SDS011;5369;49.586;8.646;2023-05-10T08:37:51;3.20;;;3.00;;
10641;SDS011;5369;49.586;8.646;2023-05-10T08:40:18;2.90;;;2.50;;
10641;SDS011;5369;49.586;8.646;2023-05-10T08:42:49;2.60;;;2.40;;
10641;SDS011;5369;49.586;8.646;2023-05-10T08:45:21;2.77;;;2.57;;
10641;SDS011;5369;49.586;8.646;2023-05-10T08:47:48;2.60;;;2.40;;
10641;SDS011;5369;49.586;8.646;2023-05-10T08:50:15;2.70;;;2.47;;
10641;SDS011;5369;49.586;8.646;2023-05-10T08:52:43;2.53;;;2.33;;
10641;SDS011;5369;49.586;8.646;2023-05-10T08:55:12;2.50;;;2.30;;
10641;SDS011;5369;49.586;8.646;2023-05-10T08:57:38;2.83;;;2.63;;
10641;SDS011;5369;49.586;8.646;2023-05-10T09:00:04;2.27;;;2.07;;
10641;SDS011;5369;49.586;8.646;2023-05-10T09:02:31;4.43;;;2.23;;
10641;SDS011;5369;49.586;8.646;2023-05-10T09:04:57;2.73;;;2.10;;
10641;SDS011;5369;49.586;8.646;2023-05-10T09:07:23;3.87;;;2.30;;
10641;SDS011;5369;49.586;8.646;2023-05-10T09:09:49;2.10;;;1.90;;
10641;SDS011;5369;49.586;8.646;2023-05-10T09:12:16;2.27;;;2.17;;
10641;SDS011;5369;49.586;8.646;2023-05-10T09:14:42;2.40;;;2.20;;
10641;SDS011;5369;49.586;8.646;2023-05-10T09:17:09;2.50;;;2.30;;
10641;SDS011;5369;49.586;8.646;2023-05-10T09:19:35;2.10;;;2.00;;
10641;SDS011;5369;49.586;8.646;2023-05-10T09:22:01;3.43;;;2.20;;
10641;SDS011;5369;49.586;8.646;2023-05-10T09:24:29;2.70;;;2.40;;
10641;SDS011;5369;49.586;8.646;2023-05-10T09:26:56;3.10;;;2.23;;
10641;SDS011;5369;49.586;8.646;2023-05-10T09:29:23;2.57;;;2.20;;
10641;SDS011;5369;49.586;8.646;2023-05-10T09:31:52;2.80;;;2.13;;
10641;SDS011;5369;49.586;8.646;2023-05-10T09:34:30;8.50;;;2.93;;
10641;SDS011;5369;49.586;8.646;2023-05-10T09:36:59;6.63;;;2.80;;
10641;SDS011;5369;49.586;8.646;2023-05-10T09:39:35;5.97;;;2.77;;
10641;SDS011;5369;49.586;8.646;2023-05-10T09:42:04;4.80;;;2.50;;
10641;SDS011;5369;49.586;8.646;2023-05-10T09:44:32;7.47;;;2.30;;
10641;SDS011;5369;49.586;8.646;2023-05-10T09:46:58;4.23;;;2.30;;
10641;SDS011;5369;49.586;8.646;2023-05-10T09:49:25;4.20;;;2.40;;
10641;SDS011;5369;49.586;8.646;2023-05-10T09:51:59;3.50;;;2.30;;
10641;SDS011;5369;49.586;8.646;2023-05-10T09:54:26;3.20;;;2.40;;
10641;SDS011;5369;49.586;8.646;2023-05-10T09:56:52;2.80;;;2.53;;
10641;SDS011;5369;49.586;8.646;2023-05-10T09:59:17;4.17;;;2.60;;
10641;SDS011;5369;49.586;8.646;2023-05-10T10:01:49;3.37;;;2.97;;
10641;SDS011;5369;49.586;8.646;2023-05-10T10:04:16;3.00;;;2.70;;
10641;SDS011;5369;49.586;8.646;2023-05-10T10:06:42;3.17;;;2.87;;
10641;SDS011;5369;49.586;8.646;2023-05-10T10:09:08;5.10;;;2.83;;
10641;SDS011;5369;49.586;8.646;2023-05-10T10:11:35;3.83;;;2.70;;
10641;SDS011;5369;49.586;8.646;2023-05-10T10:14:02;4.90;;;2.47;;
10641;SDS011;5369;49.586;8.646;2023-05-10T10:16:31;4.20;;;2.60;;
10641;SDS011;5369;49.586;8.646;2023-05-10T10:18:57;2.90;;;2.57;;
10641;SDS011;5369;49.586;8.646;2023-05-10T10:21:23;4.47;;;2.40;;
10641;SDS011;5369;49.586;8.646;2023-05-10T10:23:50;3.00;;;2.07;;
10641;SDS011;5369;49.586;8.646;2023-05-10T10:26:17;3.83;;;2.70;;
10641;SDS011;5369;49.586;8.646;2023-05-10T10:31:46;2.87;;;2.10;;
10641;SDS011;5369;49.586;8.646;2023-05-10T10:34:27;2.60;;;1.93;;
10641;SDS011;5369;49.586;8.646;2023-05-10T10:36:54;3.30;;;2.00;;
10641;SDS011;5369;49.586;8.646;2023-05-10T10:39:21;5.03;;;2.20;;
10641;SDS011;5369;49.586;8.646;2023-05-10T10:41:54;4.37;;;2.30;;
10641;SDS011;5369;49.586;8.646;2023-05-10T10:46:59;4.23;;;2.53;;
10641;SDS011;5369;49.586;8.646;2023-05-10T10:49:31;2.20;;;2.00;;
10641;SDS011;5369;49.586;8.646;2023-05-10T10:54:52;2.30;;;2.10;;
10641;SDS011;5369;49.586;8.646;2023-05-10T10:57:23;2.50;;;2.30;;
10641;SDS011;5369;49.586;8.646;2023-05-10T10:59:51;3.30;;;2.10;;
10641;SDS011;5369;49.586;8.646;2023-05-10T11:08:25;2.33;;;2.10;;
10641;SDS011;5369;49.586;8.646;2023-05-10T11:13:31;2.43;;;1.67;;
10641;SDS011;5369;49.586;8.646;2023-05-10T11:15:59;1.87;;;1.50;;
10641;SDS011;5369;49.586;8.646;2023-05-10T11:18:37;1.70;;;1.60;;
10641;SDS011;5369;49.586;8.646;2023-05-10T11:21:03;2.50;;;1.50;;
10641;SDS011;5369;49.586;8.646;2023-05-10T11:23:32;2.60;;;1.67;;
10641;SDS011;5369;49.586;8.646;2023-05-10T11:26:12;2.13;;;1.60;;
10641;SDS011;5369;49.586;8.646;2023-05-10T11:28:42;1.80;;;1.43;;
10641;SDS011;5369;49.586;8.646;2023-05-10T11:31:09;2.63;;;1.60;;
10641;SDS011;5369;49.586;8.646;2023-05-10T11:33:47;3.07;;;1.70;;
10641;SDS011;5369;49.586;8.646;2023-05-10T11:36:18;1.50;;;1.40;;
10641;SDS011;5369;49.586;8.646;2023-05-10T11:38:55;1.73;;;1.40;;
10641;SDS011;5369;49.586;8.646;2023-05-10T11:41:22;1.40;;;1.30;;
10641;SDS011;5369;49.586;8.646;2023-05-10T11:43:49;2.87;;;1.30;;
10641;SDS011;5369;49.586;8.646;2023-05-10T11:46:16;1.60;;;1.50;;
10641;SDS011;5369;49.586;8.646;2023-05-10T11:48:45;2.90;;;1.40;;
10641;SDS011;5369;49.586;8.646;2023-05-10T11:51:14;1.73;;;1.43;;
10641;SDS011;5369;49.586;8.646;2023-05-10T11:53:40;1.57;;;1.43;;
10641;SDS011;5369;49.586;8.646;2023-05-10T11:56:06;1.77;;;1.40;;
10641;SDS011;5369;49.586;8.646;2023-05-10T11:58:39;1.50;;;1.37;;
10641;SDS011;5369;49.586;8.646;2023-05-10T12:01:06;1.50;;;1.40;;
10641;SDS011;5369;49.586;8.646;2023-05-10T12:03:32;1.40;;;1.30;;
10641;SDS011;5369;49.586;8.646;2023-05-10T12:05:59;1.50;;;1.40;;
10641;SDS011;5369;49.586;8.646;2023-05-10T12:08:27;1.70;;;1.20;;
10641;SDS011;5369;49.586;8.646;2023-05-10T12:11:04;1.40;;;1.30;;
10641;SDS011;5369;49.586;8.646;2023-05-10T12:13:37;1.77;;;1.23;;
10641;SDS011;5369;49.586;8.646;2023-05-10T12:16:19;3.40;;;1.30;;
10641;SDS011;5369;49.586;8.646;2023-05-10T12:18:50;4.03;;;1.10;;
10641;SDS011;5369;49.586;8.646;2023-05-10T12:21:20;2.70;;;1.20;;
10641;SDS011;5369;49.586;8.646;2023-05-10T12:23:48;2.23;;;1.20;;
10641;SDS011;5369;49.586;8.646;2023-05-10T12:26:23;3.50;;;1.37;;
10641;SDS011;5369;49.586;8.646;2023-05-10T12:28:52;2.30;;;1.53;;
10641;SDS011;5369;49.586;8.646;2023-05-10T12:31:19;1.60;;;1.37;;
10641;SDS011;5369;49.586;8.646;2023-05-10T12:33:45;1.50;;;1.03;;
10641;SDS011;5369;49.586;8.646;2023-05-10T12:36:15;3.10;;;1.20;;
10641;SDS011;5369;49.586;8.646;2023-05-10T12:38:42;1.47;;;1.10;;
10641;SDS011;5369;49.586;8.646;2023-05-10T12:41:10;3.23;;;1.40;;
10641;SDS011;5369;49.586;8.646;2023-05-10T12:43:37;2.10;;;1.40;;
10641;SDS011;5369;49.586;8.646;2023-05-10T12:46:13;1.20;;;1.10;;
10641;SDS011;5369;49.586;8.646;2023-05-10T12:48:40;1.73;;;1.20;;
10641;SDS011;5369;49.586;8.646;2023-05-10T12:51:07;1.40;;;1.30;;
10641;SDS011;5369;49.586;8.646;2023-05-10T12:53:35;4.67;;;1.40;;
10641;SDS011;5369;49.586;8.646;2023-05-10T12:56:01;3.77;;;1.50;;
10641;SDS011;5369;49.586;8.646;2023-05-10T12:58:27;2.43;;;1.23;;
10641;SDS011;5369;49.586;8.646;2023-05-10T13:00:53;2.13;;;1.47;;
10641;SDS011;5369;49.586;8.646;2023-05-10T13:03:21;1.63;;;1.20;;
10641;SDS011;5369;49.586;8.646;2023-05-10T13:05:47;2.90;;;1.30;;
10641;SDS011;5369;49.586;8.646;2023-05-10T13:08:14;2.50;;;1.30;;
10641;SDS011;5369;49.586;8.646;2023-05-10T13:10:40;5.10;;;1.63;;
10641;SDS011;5369;49.586;8.646;2023-05-10T13:13:06;3.23;;;1.20;;
10641;SDS011;5369;49.586;8.646;2023-05-10T13:15:33;1.97;;;1.10;;
10641;SDS011;5369;49.586;8.646;2023-05-10T13:18:00;1.47;;;1.10;;
10641;SDS011;5369;49.586;8.646;2023-05-10T13:20:26;1.10;;;1.00;;
10641;SDS011;5369;49.586;8.646;2023-05-10T13:22:53;2.20;;;1.00;;
10641;SDS011;5369;49.586;8.646;2023-05-10T13:25:19;1.63;;;1.00;;
10641;SDS011;5369;49.586;8.646;2023-05-10T13:27:45;4.07;;;1.20;;
10641;SDS011;5369;49.586;8.646;2023-05-10T13:30:11;3.77;;;1.20;;
10641;SDS011;5369;49.586;8.646;2023-05-10T13:32:37;3.30;;;1.10;;
10641;SDS011;5369;49.586;8.646;2023-05-10T13:35:04;1.70;;;0.97;;
10641;SDS011;5369;49.586;8.646;2023-05-10T13:37:30;2.53;;;1.27;;
10641;SDS011;5369;49.586;8.646;2023-05-10T13:39:57;2.87;;;1.20;;
10641;SDS011;5369;49.586;8.646;2023-05-10T13:42:23;2.77;;;1.40;;
10641;SDS011;5369;49.586;8.646;2023-05-10T13:44:50;2.70;;;1.40;;
10641;SDS011;5369;49.586;8.646;2023-05-10T13:47:16;4.67;;;1.33;;
10641;SDS011;5369;49.586;8.646;2023-05-10T13:49:42;3.57;;;1.33;;
10641;SDS011;5369;49.586;8.646;2023-05-10T13:52:08;1.97;;;1.00;;
10641;SDS011;5369;49.586;8.646;2023-05-10T13:54:38;2.23;;;1.20;;
10641;SDS011;5369;49.586;8.646;2023-05-10T13:57:05;4.20;;;1.37;;
10641;SDS011;5369;49.586;8.646;2023-05-10T13:59:31;7.37;;;3.77;;
10641;SDS011;5369;49.586;8.646;2023-05-10T14:01:58;8.37;;;2.77;;
10641;SDS011;5369;49.586;8.646;2023-05-10T14:04:24;4.63;;;1.90;;
10641;SDS011;5369;49.586;8.646;2023-05-10T14:06:50;2.60;;;1.60;;
10641;SDS011;5369;49.586;8.646;2023-05-10T14:09:18;1.70;;;1.20;;
10641;SDS011;5369;49.586;8.646;2023-05-10T14:11:44;3.53;;;1.30;;
10641;SDS011;5369;49.586;8.646;2023-05-10T14:14:11;1.97;;;1.10;;
10641;SDS011;5369;49.586;8.646;2023-05-10T14:16:40;3.43;;;1.30;;
10641;SDS011;5369;49.586;8.646;2023-05-10T14:19:07;3.47;;;1.20;;
10641;SDS011;5369;49.586;8.646;2023-05-10T14:21:33;2.63;;;1.10;;
10641;SDS011;5369;49.586;8.646;2023-05-10T14:23:59;2.83;;;1.10;;
10641;SDS011;5369;49.586;8.646;2023-05-10T14:26:26;1.87;;;1.10;;
10641;SDS011;5369;49.586;8.646;2023-05-10T14:28:52;2.57;;;0.90;;
10641;SDS011;5369;49.586;8.646;2023-05-10T14:31:18;2.17;;;1.10;;
10641;SDS011;5369;49.586;8.646;2023-05-10T14:33:46;1.90;;;1.20;;
10641;SDS011;5369;49.586;8.646;2023-05-10T14:36:12;1.40;;;0.93;;
10641;SDS011;5369;49.586;8.646;2023-05-10T14:38:39;1.53;;;0.87;;
10641;SDS011;5369;49.586;8.646;2023-05-10T14:41:05;2.83;;;1.13;;
10641;SDS011;5369;49.586;8.646;2023-05-10T14:43:31;2.40;;;1.00;;
10641;SDS011;5369;49.586;8.646;2023-05-10T14:45:58;1.60;;;0.90;;
10641;SDS011;5369;49.586;8.646;2023-05-10T14:48:24;2.07;;;1.10;;
10641;SDS011;5369;49.586;8.646;2023-05-10T14:50:50;2.40;;;0.90;;
10641;SDS011;5369;49.586;8.646;2023-05-10T14:53:17;4.70;;;1.30;;
10641;SDS011;5369;49.586;8.646;2023-05-10T14:55:43;1.40;;;1.03;;
10641;SDS011;5369;49.586;8.646;2023-05-10T14:58:09;2.80;;;1.00;;
10641;SDS011;5369;49.586;8.646;2023-05-10T15:00:35;2.17;;;1.00;;
10641;SDS011;5369;49.586;8.646;2023-05-10T15:03:02;1.47;;;0.90;;
10641;SDS011;5369;49.586;8.646;2023-05-10T15:05:28;1.67;;;0.90;;
10641;SDS011;5369;49.586;8.646;2023-05-10T15:07:55;2.43;;;1.10;;
10641;SDS011;5369;49.586;8.646;2023-05-10T15:10:21;2.37;;;1.00;;
10641;SDS011;5369;49.586;8.646;2023-05-10T15:12:47;2.73;;;1.00;;
10641;SDS011;5369;49.586;8.646;2023-05-10T15:15:13;3.97;;;1.00;;
10641;SDS011;5369;49.586;8.646;2023-05-10T15:17:40;1.53;;;1.00;;
10641;SDS011;5369;49.586;8.646;2023-05-10T15:20:06;1.27;;;0.90;;
10641;SDS011;5369;49.586;8.646;2023-05-10T15:22:32;1.37;;;0.90;;
10641;SDS011;5369;49.586;8.646;2023-05-10T15:24:58;2.53;;;0.80;;
10641;SDS011;5369;49.586;8.646;2023-05-10T15:27:25;3.00;;;0.83;;
10641;SDS011;5369;49.586;8.646;2023-05-10T15:29:52;0.80;;;0.70;;
10641;SDS011;5369;49.586;8.646;2023-05-10T15:32:18;1.00;;;0.90;;